sensor_id;sensor_type;location;lat;lon;timestamp;P1;durP1;ratioP1;P2;durP2;ratioP2
55292;SDS011;41157;53.560;10.098;2022-12-29T00:01:53;7.83;;;5.47;;
55292;SDS011;41157;53.560;10.098;2022-12-29T00:04:20;4.73;;;3.23;;
55292;SDS011;41157;53.560;10.098;2022-12-29T00:06:46;3.00;;;2.43;;
55292;SDS011;41157;53.560;10.098;2022-12-29T00:09:12;3.17;;;2.90;;
55292;SDS011;41157;53.560;10.098;2022-12-29T00:11:38;5.50;;;2.60;;
55292;SDS011;41157;53.560;10.098;2022-12-29T00:14:04;2.63;;;2.43;;
55292;SDS011;41157;53.560;10.098;2022-12-29T00:16:49;3.10;;;2.40;;
55292;SDS011;41157;53.560;10.098;2022-12-29T00:19:15;3.27;;;2.60;;
55292;SDS011;41157;53.560;10.098;2022-12-29T00:21:59;3.03;;;2.33;;
55292;SDS011;41157;53.560;10.098;2022-12-29T00:24:44;2.50;;;2.30;;
55292;SDS011;41157;53.560;10.098;2022-12-29T00:27:28;4.10;;;2.73;;
55292;SDS011;41157;53.560;10.098;2022-12-29T00:30:15;2.87;;;2.60;;
55292;SDS011;41157;53.560;10.098;2022-12-29T00:33:00;2.67;;;2.47;;
55292;SDS011;41157;53.560;10.098;2022-12-29T00:35:45;2.53;;;2.33;;
55292;SDS011;41157;53.560;10.098;2022-12-29T00:38:13;2.50;;;2.30;;
55292;SDS011;41157;53.560;10.098;2022-12-29T00:40:58;3.03;;;2.13;;
55292;SDS011;41157;53.560;10.098;2022-12-29T00:43:43;3.17;;;2.67;;
55292;SDS011;41157;53.560;10.098;2022-12-29T00:46:27;2.43;;;2.20;;
55292;SDS011;41157;53.560;10.098;2022-12-29T00:48:53;3.77;;;2.50;;
55292;SDS011;41157;53.560;10.098;2022-12-29T00:51:37;2.30;;;2.10;;
55292;SDS011;41157;53.560;10.098;2022-12-29T00:54:03;2.90;;;2.30;;
55292;SDS011;41157;53.560;10.098;2022-12-29T00:56:29;3.23;;;2.80;;
55292;SDS011;41157;53.560;10.098;2022-12-29T00:58:59;4.90;;;2.40;;
55292;SDS011;41157;53.560;10.098;2022-12-29T01:01:25;4.00;;;2.57;;
55292;SDS011;41157;53.560;10.098;2022-12-29T01:03:51;4.00;;;2.60;;
55292;SDS011;41157;53.560;10.098;2022-12-29T01:06:17;2.60;;;2.40;;
55292;SDS011;41157;53.560;10.098;2022-12-29T01:08:43;3.17;;;2.00;;
55292;SDS011;41157;53.560;10.098;2022-12-29T01:11:10;4.60;;;2.77;;
55292;SDS011;41157;53.560;10.098;2022-12-29T01:13:36;2.77;;;2.40;;
55292;SDS011;41157;53.560;10.098;2022-12-29T01:16:07;2.30;;;2.10;;
55292;SDS011;41157;53.560;10.098;2022-12-29T01:18:33;2.93;;;2.43;;
55292;SDS011;41157;53.560;10.098;2022-12-29T01:21:03;2.90;;;2.53;;
55292;SDS011;41157;53.560;10.098;2022-12-29T01:23:29;2.60;;;2.40;;
55292;SDS011;41157;53.560;10.098;2022-12-29T01:25:56;2.60;;;2.40;;
55292;SDS011;41157;53.560;10.098;2022-12-29T01:28:22;2.60;;;2.40;;
55292;SDS011;41157;53.560;10.098;2022-12-29T01:30:48;3.40;;;2.40;;
55292;SDS011;41157;53.560;10.098;2022-12-29T01:33:14;2.87;;;2.47;;
55292;SDS011;41157;53.560;10.098;2022-12-29T01:35:40;2.60;;;2.40;;
55292;SDS011;41157;53.560;10.098;2022-12-29T01:38:06;3.47;;;2.60;;
55292;SDS011;41157;53.560;10.098;2022-12-29T01:40:32;3.13;;;2.47;;
55292;SDS011;41157;53.560;10.098;2022-12-29T01:42:58;2.83;;;2.40;;
55292;SDS011;41157;53.560;10.098;2022-12-29T01:45:24;6.00;;;2.47;;
55292;SDS011;41157;53.560;10.098;2022-12-29T01:47:52;2.70;;;2.43;;
55292;SDS011;41157;53.560;10.098;2022-12-29T01:52:50;3.23;;;2.33;;
55292;SDS011;41157;53.560;10.098;2022-12-29T01:55:16;4.40;;;2.60;;
55292;SDS011;41157;53.560;10.098;2022-12-29T01:57:43;2.93;;;2.67;;
55292;SDS011;41157;53.560;10.098;2022-12-29T02:00:12;5.20;;;2.70;;
55292;SDS011;41157;53.560;10.098;2022-12-29T02:02:51;3.50;;;2.70;;
55292;SDS011;41157;53.560;10.098;2022-12-29T02:05:33;3.33;;;3.07;;
55292;SDS011;41157;53.560;10.098;2022-12-29T02:08:01;3.10;;;2.80;;
55292;SDS011;41157;53.560;10.098;2022-12-29T02:10:28;3.03;;;2.73;;
55292;SDS011;41157;53.560;10.098;2022-12-29T02:12:55;5.43;;;2.93;;
55292;SDS011;41157;53.560;10.098;2022-12-29T02:15:33;4.00;;;3.10;;
55292;SDS011;41157;53.560;10.098;2022-12-29T02:18:07;4.27;;;3.40;;
55292;SDS011;41157;53.560;10.098;2022-12-29T02:24:00;3.70;;;3.17;;
55292;SDS011;41157;53.560;10.098;2022-12-29T02:28:53;4.33;;;2.90;;
55292;SDS011;41157;53.560;10.098;2022-12-29T02:34:06;4.43;;;2.77;;
55292;SDS011;41157;53.560;10.098;2022-12-29T02:42:17;2.60;;;2.40;;
55292;SDS011;41157;53.560;10.098;2022-12-29T02:44:34;2.97;;;2.27;;
55292;SDS011;41157;53.560;10.098;2022-12-29T02:47:11;2.77;;;2.50;;
55292;SDS011;41157;53.560;10.098;2022-12-29T02:49:50;3.13;;;2.53;;
55292;SDS011;41157;53.560;10.098;2022-12-29T02:52:23;7.10;;;2.73;;
55292;SDS011;41157;53.560;10.098;2022-12-29T02:54:53;3.10;;;2.47;;
55292;SDS011;41157;53.560;10.098;2022-12-29T02:59:53;4.53;;;2.53;;
55292;SDS011;41157;53.560;10.098;2022-12-29T03:02:33;3.07;;;2.30;;
55292;SDS011;41157;53.560;10.098;2022-12-29T03:10:35;2.93;;;2.20;;
55292;SDS011;41157;53.560;10.098;2022-12-29T03:13:05;2.93;;;2.33;;
55292;SDS011;41157;53.560;10.098;2022-12-29T03:16:01;3.00;;;2.60;;
55292;SDS011;41157;53.560;10.098;2022-12-29T03:18:37;2.30;;;2.10;;
55292;SDS011;41157;53.560;10.098;2022-12-29T03:21:51;2.50;;;2.30;;
55292;SDS011;41157;53.560;10.098;2022-12-29T03:24:10;2.83;;;2.50;;
55292;SDS011;41157;53.560;10.098;2022-12-29T03:26:36;2.63;;;2.40;;
55292;SDS011;41157;53.560;10.098;2022-12-29T03:29:02;2.63;;;2.43;;
55292;SDS011;41157;53.560;10.098;2022-12-29T03:31:30;2.20;;;2.07;;
55292;SDS011;41157;53.560;10.098;2022-12-29T03:33:56;2.63;;;2.27;;
55292;SDS011;41157;53.560;10.098;2022-12-29T03:39:10;2.87;;;2.20;;
55292;SDS011;41157;53.560;10.098;2022-12-29T03:41:37;3.67;;;2.20;;
55292;SDS011;41157;53.560;10.098;2022-12-29T03:44:08;2.50;;;2.30;;
55292;SDS011;41157;53.560;10.098;2022-12-29T03:46:34;2.50;;;2.00;;
55292;SDS011;41157;53.560;10.098;2022-12-29T03:49:00;2.40;;;2.20;;
55292;SDS011;41157;53.560;10.098;2022-12-29T03:51:26;2.50;;;2.10;;
55292;SDS011;41157;53.560;10.098;2022-12-29T03:53:52;5.07;;;1.70;;
55292;SDS011;41157;53.560;10.098;2022-12-29T03:56:18;3.27;;;2.10;;
55292;SDS011;41157;53.560;10.098;2022-12-29T03:58:44;2.73;;;2.00;;
55292;SDS011;41157;53.560;10.098;2022-12-29T04:01:10;1.90;;;1.70;;
55292;SDS011;41157;53.560;10.098;2022-12-29T04:03:36;4.97;;;2.10;;
55292;SDS011;41157;53.560;10.098;2022-12-29T04:06:02;2.07;;;1.97;;
55292;SDS011;41157;53.560;10.098;2022-12-29T04:08:28;1.90;;;1.80;;
55292;SDS011;41157;53.560;10.098;2022-12-29T04:10:54;2.93;;;2.20;;
55292;SDS011;41157;53.560;10.098;2022-12-29T04:13:20;2.07;;;1.90;;
55292;SDS011;41157;53.560;10.098;2022-12-29T04:15:46;2.10;;;1.83;;
55292;SDS011;41157;53.560;10.098;2022-12-29T04:18:12;2.10;;;1.63;;
55292;SDS011;41157;53.560;10.098;2022-12-29T04:20:38;3.53;;;2.13;;
55292;SDS011;41157;53.560;10.098;2022-12-29T04:23:23;2.10;;;1.90;;
55292;SDS011;41157;53.560;10.098;2022-12-29T04:25:49;2.33;;;2.13;;
55292;SDS011;41157;53.560;10.098;2022-12-29T04:28:15;3.53;;;2.30;;
55292;SDS011;41157;53.560;10.098;2022-12-29T04:30:42;2.17;;;1.97;;
55292;SDS011;41157;53.560;10.098;2022-12-29T04:33:08;4.60;;;2.00;;
55292;SDS011;41157;53.560;10.098;2022-12-29T04:35:34;3.07;;;1.80;;
55292;SDS011;41157;53.560;10.098;2022-12-29T04:38:00;1.70;;;1.60;;
55292;SDS011;41157;53.560;10.098;2022-12-29T04:40:27;1.80;;;1.70;;
55292;SDS011;41157;53.560;10.098;2022-12-29T04:42:53;3.10;;;1.80;;
55292;SDS011;41157;53.560;10.098;2022-12-29T04:45:18;1.97;;;1.87;;
55292;SDS011;41157;53.560;10.098;2022-12-29T04:47:44;3.90;;;1.77;;
55292;SDS011;41157;53.560;10.098;2022-12-29T04:50:10;1.80;;;1.70;;
55292;SDS011;41157;53.560;10.098;2022-12-29T04:52:36;1.87;;;1.77;;
55292;SDS011;41157;53.560;10.098;2022-12-29T04:55:03;2.40;;;1.67;;
55292;SDS011;41157;53.560;10.098;2022-12-29T04:57:29;1.80;;;1.70;;
55292;SDS011;41157;53.560;10.098;2022-12-29T04:59:55;2.07;;;1.90;;
55292;SDS011;41157;53.560;10.098;2022-12-29T05:02:21;1.70;;;1.60;;
55292;SDS011;41157;53.560;10.098;2022-12-29T05:04:47;2.30;;;1.50;;
55292;SDS011;41157;53.560;10.098;2022-12-29T05:07:13;4.50;;;1.70;;
55292;SDS011;41157;53.560;10.098;2022-12-29T05:09:39;2.90;;;1.73;;
55292;SDS011;41157;53.560;10.098;2022-12-29T05:12:05;2.60;;;1.67;;
55292;SDS011;41157;53.560;10.098;2022-12-29T05:14:31;2.00;;;1.80;;
55292;SDS011;41157;53.560;10.098;2022-12-29T05:16:57;4.07;;;1.80;;
55292;SDS011;41157;53.560;10.098;2022-12-29T05:19:23;4.17;;;1.77;;
55292;SDS011;41157;53.560;10.098;2022-12-29T05:21:49;2.47;;;1.67;;
55292;SDS011;41157;53.560;10.098;2022-12-29T05:24:15;1.97;;;1.73;;
55292;SDS011;41157;53.560;10.098;2022-12-29T05:26:41;1.70;;;1.60;;
55292;SDS011;41157;53.560;10.098;2022-12-29T05:29:07;1.70;;;1.60;;
55292;SDS011;41157;53.560;10.098;2022-12-29T05:31:33;1.97;;;1.50;;
55292;SDS011;41157;53.560;10.098;2022-12-29T05:34:00;1.60;;;1.50;;
55292;SDS011;41157;53.560;10.098;2022-12-29T05:36:26;1.70;;;1.50;;
55292;SDS011;41157;53.560;10.098;2022-12-29T05:38:52;4.40;;;1.80;;
55292;SDS011;41157;53.560;10.098;2022-12-29T05:41:18;1.70;;;1.60;;
55292;SDS011;41157;53.560;10.098;2022-12-29T05:43:44;2.20;;;1.93;;
55292;SDS011;41157;53.560;10.098;2022-12-29T05:46:10;1.53;;;1.43;;
55292;SDS011;41157;53.560;10.098;2022-12-29T05:48:36;4.33;;;1.63;;
55292;SDS011;41157;53.560;10.098;2022-12-29T05:51:02;2.37;;;1.73;;
55292;SDS011;41157;53.560;10.098;2022-12-29T05:53:28;3.13;;;1.40;;
55292;SDS011;41157;53.560;10.098;2022-12-29T05:55:54;1.83;;;1.50;;
55292;SDS011;41157;53.560;10.098;2022-12-29T05:58:20;1.77;;;1.67;;
55292;SDS011;41157;53.560;10.098;2022-12-29T06:00:46;1.83;;;1.37;;
55292;SDS011;41157;53.560;10.098;2022-12-29T06:03:12;1.87;;;1.43;;
55292;SDS011;41157;53.560;10.098;2022-12-29T06:05:38;1.20;;;1.20;;
55292;SDS011;41157;53.560;10.098;2022-12-29T06:08:04;4.53;;;1.50;;
55292;SDS011;41157;53.560;10.098;2022-12-29T06:10:30;2.40;;;1.10;;
55292;SDS011;41157;53.560;10.098;2022-12-29T06:12:56;2.33;;;1.47;;
55292;SDS011;41157;53.560;10.098;2022-12-29T06:15:22;1.87;;;1.40;;
55292;SDS011;41157;53.560;10.098;2022-12-29T06:17:48;2.50;;;1.50;;
55292;SDS011;41157;53.560;10.098;2022-12-29T06:20:14;1.40;;;1.27;;
55292;SDS011;41157;53.560;10.098;2022-12-29T06:22:40;1.57;;;1.43;;
55292;SDS011;41157;53.560;10.098;2022-12-29T06:25:06;3.23;;;1.37;;
55292;SDS011;41157;53.560;10.098;2022-12-29T06:27:32;1.50;;;1.40;;
55292;SDS011;41157;53.560;10.098;2022-12-29T06:29:58;3.27;;;1.50;;
55292;SDS011;41157;53.560;10.098;2022-12-29T06:32:24;1.40;;;1.20;;
55292;SDS011;41157;53.560;10.098;2022-12-29T06:34:50;1.87;;;1.50;;
55292;SDS011;41157;53.560;10.098;2022-12-29T06:37:16;1.37;;;1.30;;
55292;SDS011;41157;53.560;10.098;2022-12-29T06:39:42;2.30;;;1.60;;
55292;SDS011;41157;53.560;10.098;2022-12-29T06:42:09;2.23;;;1.67;;
55292;SDS011;41157;53.560;10.098;2022-12-29T06:44:35;2.00;;;1.80;;
55292;SDS011;41157;53.560;10.098;2022-12-29T06:47:00;2.63;;;1.60;;
55292;SDS011;41157;53.560;10.098;2022-12-29T06:49:26;5.87;;;1.70;;
55292;SDS011;41157;53.560;10.098;2022-12-29T06:51:52;2.80;;;1.50;;
55292;SDS011;41157;53.560;10.098;2022-12-29T06:54:18;1.27;;;1.20;;
55292;SDS011;41157;53.560;10.098;2022-12-29T06:56:44;1.37;;;1.27;;
55292;SDS011;41157;53.560;10.098;2022-12-29T06:59:10;1.07;;;1.00;;
55292;SDS011;41157;53.560;10.098;2022-12-29T07:01:36;0.97;;;0.93;;
55292;SDS011;41157;53.560;10.098;2022-12-29T07:04:03;3.73;;;1.43;;
55292;SDS011;41157;53.560;10.098;2022-12-29T07:06:29;1.27;;;1.17;;
55292;SDS011;41157;53.560;10.098;2022-12-29T07:08:55;3.50;;;1.10;;
55292;SDS011;41157;53.560;10.098;2022-12-29T07:11:22;2.13;;;1.30;;
55292;SDS011;41157;53.560;10.098;2022-12-29T07:13:48;3.60;;;1.40;;
55292;SDS011;41157;53.560;10.098;2022-12-29T07:16:14;2.10;;;1.30;;
55292;SDS011;41157;53.560;10.098;2022-12-29T07:18:40;1.00;;;1.00;;
55292;SDS011;41157;53.560;10.098;2022-12-29T07:21:06;2.37;;;1.57;;
55292;SDS011;41157;53.560;10.098;2022-12-29T07:23:32;1.00;;;1.00;;
55292;SDS011;41157;53.560;10.098;2022-12-29T07:26:02;1.30;;;1.20;;
55292;SDS011;41157;53.560;10.098;2022-12-29T07:28:29;2.87;;;1.10;;
55292;SDS011;41157;53.560;10.098;2022-12-29T07:30:56;1.00;;;1.00;;
55292;SDS011;41157;53.560;10.098;2022-12-29T07:33:22;1.40;;;1.13;;
55292;SDS011;41157;53.560;10.098;2022-12-29T07:35:48;4.00;;;1.30;;
55292;SDS011;41157;53.560;10.098;2022-12-29T07:38:14;1.77;;;1.40;;
55292;SDS011;41157;53.560;10.098;2022-12-29T07:40:40;3.07;;;1.50;;
55292;SDS011;41157;53.560;10.098;2022-12-29T07:43:06;1.97;;;1.70;;
55292;SDS011;41157;53.560;10.098;2022-12-29T07:45:31;2.27;;;1.50;;
55292;SDS011;41157;53.560;10.098;2022-12-29T07:47:57;2.93;;;1.40;;
55292;SDS011;41157;53.560;10.098;2022-12-29T07:50:23;1.53;;;1.43;;
55292;SDS011;41157;53.560;10.098;2022-12-29T07:52:49;1.80;;;1.50;;
55292;SDS011;41157;53.560;10.098;2022-12-29T07:55:16;4.57;;;1.90;;
55292;SDS011;41157;53.560;10.098;2022-12-29T07:57:42;2.87;;;1.70;;
55292;SDS011;41157;53.560;10.098;2022-12-29T08:00:08;1.40;;;1.27;;
55292;SDS011;41157;53.560;10.098;2022-12-29T08:02:34;1.27;;;1.00;;
55292;SDS011;41157;53.560;10.098;2022-12-29T08:05:00;1.87;;;1.20;;
55292;SDS011;41157;53.560;10.098;2022-12-29T08:07:26;1.60;;;0.90;;
55292;SDS011;41157;53.560;10.098;2022-12-29T08:09:52;2.07;;;0.97;;
55292;SDS011;41157;53.560;10.098;2022-12-29T08:12:18;1.23;;;1.13;;
55292;SDS011;41157;53.560;10.098;2022-12-29T08:14:44;3.00;;;1.40;;
55292;SDS011;41157;53.560;10.098;2022-12-29T08:17:10;4.00;;;1.50;;
55292;SDS011;41157;53.560;10.098;2022-12-29T08:19:36;1.30;;;1.20;;
55292;SDS011;41157;53.560;10.098;2022-12-29T08:22:02;2.03;;;1.40;;
55292;SDS011;41157;53.560;10.098;2022-12-29T08:24:28;2.10;;;1.20;;
55292;SDS011;41157;53.560;10.098;2022-12-29T08:26:55;3.93;;;1.60;;
55292;SDS011;41157;53.560;10.098;2022-12-29T08:29:21;2.00;;;1.30;;
55292;SDS011;41157;53.560;10.098;2022-12-29T08:31:47;1.50;;;1.40;;
55292;SDS011;41157;53.560;10.098;2022-12-29T08:34:13;5.97;;;1.77;;
55292;SDS011;41157;53.560;10.098;2022-12-29T08:36:39;5.60;;;3.33;;
55292;SDS011;41157;53.560;10.098;2022-12-29T08:39:05;15.07;;;9.37;;
55292;SDS011;41157;53.560;10.098;2022-12-29T08:41:31;7.20;;;1.60;;
55292;SDS011;41157;53.560;10.098;2022-12-29T08:43:57;2.90;;;1.70;;
55292;SDS011;41157;53.560;10.098;2022-12-29T08:46:23;1.97;;;1.50;;
55292;SDS011;41157;53.560;10.098;2022-12-29T08:48:49;8.67;;;2.00;;
55292;SDS011;41157;53.560;10.098;2022-12-29T08:51:15;4.33;;;1.40;;
55292;SDS011;41157;53.560;10.098;2022-12-29T08:53:41;2.47;;;1.47;;
55292;SDS011;41157;53.560;10.098;2022-12-29T08:56:08;2.67;;;1.60;;
55292;SDS011;41157;53.560;10.098;2022-12-29T08:58:34;3.43;;;1.53;;
55292;SDS011;41157;53.560;10.098;2022-12-29T09:01:01;4.73;;;1.40;;
55292;SDS011;41157;53.560;10.098;2022-12-29T09:03:27;6.87;;;4.67;;
55292;SDS011;41157;53.560;10.098;2022-12-29T09:05:53;1.97;;;1.80;;
55292;SDS011;41157;53.560;10.098;2022-12-29T09:08:19;5.97;;;1.30;;
55292;SDS011;41157;53.560;10.098;2022-12-29T09:10:46;3.50;;;1.10;;
55292;SDS011;41157;53.560;10.098;2022-12-29T09:13:12;2.97;;;1.20;;
55292;SDS011;41157;53.560;10.098;2022-12-29T09:15:39;4.17;;;1.10;;
55292;SDS011;41157;53.560;10.098;2022-12-29T09:18:05;2.87;;;1.37;;
55292;SDS011;41157;53.560;10.098;2022-12-29T09:20:31;2.10;;;1.20;;
55292;SDS011;41157;53.560;10.098;2022-12-29T09:22:58;2.10;;;1.20;;
55292;SDS011;41157;53.560;10.098;2022-12-29T09:25:24;2.27;;;1.30;;
55292;SDS011;41157;53.560;10.098;2022-12-29T09:27:50;3.27;;;1.20;;
55292;SDS011;41157;53.560;10.098;2022-12-29T09:30:18;5.30;;;1.37;;
55292;SDS011;41157;53.560;10.098;2022-12-29T09:32:44;2.87;;;1.23;;
55292;SDS011;41157;53.560;10.098;2022-12-29T09:35:10;4.80;;;1.57;;
55292;SDS011;41157;53.560;10.098;2022-12-29T09:37:36;3.57;;;1.23;;
55292;SDS011;41157;53.560;10.098;2022-12-29T09:40:02;2.40;;;1.27;;
55292;SDS011;41157;53.560;10.098;2022-12-29T09:42:31;6.83;;;1.50;;
55292;SDS011;41157;53.560;10.098;2022-12-29T09:47:24;2.57;;;1.17;;
55292;SDS011;41157;53.560;10.098;2022-12-29T09:49:54;3.10;;;1.37;;
55292;SDS011;41157;53.560;10.098;2022-12-29T09:52:22;4.77;;;1.70;;
55292;SDS011;41157;53.560;10.098;2022-12-29T09:54:52;3.63;;;1.43;;
55292;SDS011;41157;53.560;10.098;2022-12-29T09:57:26;5.40;;;1.60;;
55292;SDS011;41157;53.560;10.098;2022-12-29T09:59:55;5.53;;;1.50;;
55292;SDS011;41157;53.560;10.098;2022-12-29T10:02:31;4.27;;;1.40;;
55292;SDS011;41157;53.560;10.098;2022-12-29T10:04:57;5.77;;;1.40;;
55292;SDS011;41157;53.560;10.098;2022-12-29T10:17:48;3.47;;;1.37;;
55292;SDS011;41157;53.560;10.098;2022-12-29T10:20:52;4.43;;;1.10;;
55292;SDS011;41157;53.560;10.098;2022-12-29T10:25:38;2.70;;;1.33;;
55292;SDS011;41157;53.560;10.098;2022-12-29T10:28:31;2.50;;;1.47;;
55292;SDS011;41157;53.560;10.098;2022-12-29T10:30:51;3.63;;;1.37;;
55292;SDS011;41157;53.560;10.098;2022-12-29T10:33:19;4.33;;;1.43;;
55292;SDS011;41157;53.560;10.098;2022-12-29T10:35:48;5.20;;;1.40;;
55292;SDS011;41157;53.560;10.098;2022-12-29T10:38:20;3.80;;;1.50;;
55292;SDS011;41157;53.560;10.098;2022-12-29T10:40:51;4.70;;;1.50;;
55292;SDS011;41157;53.560;10.098;2022-12-29T10:43:33;5.60;;;1.53;;
55292;SDS011;41157;53.560;10.098;2022-12-29T10:46:04;5.40;;;1.60;;
55292;SDS011;41157;53.560;10.098;2022-12-29T10:48:33;4.23;;;1.57;;
55292;SDS011;41157;53.560;10.098;2022-12-29T10:51:01;4.47;;;1.70;;
55292;SDS011;41157;53.560;10.098;2022-12-29T10:56:03;6.50;;;1.90;;
55292;SDS011;41157;53.560;10.098;2022-12-29T10:58:30;10.27;;;1.90;;
55292;SDS011;41157;53.560;10.098;2022-12-29T11:00:57;5.90;;;1.90;;
55292;SDS011;41157;53.560;10.098;2022-12-29T11:08:30;6.50;;;2.00;;
55292;SDS011;41157;53.560;10.098;2022-12-29T11:10:58;6.23;;;1.53;;
55292;SDS011;41157;53.560;10.098;2022-12-29T11:13:26;5.03;;;2.03;;
55292;SDS011;41157;53.560;10.098;2022-12-29T11:15:53;5.97;;;1.93;;
55292;SDS011;41157;53.560;10.098;2022-12-29T11:20:45;3.27;;;1.60;;
55292;SDS011;41157;53.560;10.098;2022-12-29T11:23:21;10.33;;;1.77;;
55292;SDS011;41157;53.560;10.098;2022-12-29T11:26:05;5.43;;;1.57;;
55292;SDS011;41157;53.560;10.098;2022-12-29T11:28:31;4.40;;;1.43;;
55292;SDS011;41157;53.560;10.098;2022-12-29T11:31:01;6.63;;;1.97;;
55292;SDS011;41157;53.560;10.098;2022-12-29T11:33:28;4.73;;;1.50;;
55292;SDS011;41157;53.560;10.098;2022-12-29T11:35:58;1.77;;;1.37;;
55292;SDS011;41157;53.560;10.098;2022-12-29T11:38:29;3.13;;;1.40;;
55292;SDS011;41157;53.560;10.098;2022-12-29T11:40:56;4.73;;;1.60;;
55292;SDS011;41157;53.560;10.098;2022-12-29T11:43:38;4.53;;;1.60;;
55292;SDS011;41157;53.560;10.098;2022-12-29T11:46:05;5.97;;;1.50;;
55292;SDS011;41157;53.560;10.098;2022-12-29T11:48:40;5.63;;;1.60;;
55292;SDS011;41157;53.560;10.098;2022-12-29T11:51:06;5.40;;;1.53;;
55292;SDS011;41157;53.560;10.098;2022-12-29T11:53:43;4.43;;;1.43;;
55292;SDS011;41157;53.560;10.098;2022-12-29T11:56:15;4.70;;;1.80;;
55292;SDS011;41157;53.560;10.098;2022-12-29T11:58:42;4.37;;;1.63;;
55292;SDS011;41157;53.560;10.098;2022-12-29T12:01:16;4.00;;;2.20;;
55292;SDS011;41157;53.560;10.098;2022-12-29T12:03:59;3.63;;;1.33;;
55292;SDS011;41157;53.560;10.098;2022-12-29T12:06:26;5.00;;;1.73;;
55292;SDS011;41157;53.560;10.098;2022-12-29T12:08:53;5.33;;;1.60;;
55292;SDS011;41157;53.560;10.098;2022-12-29T12:14:04;4.20;;;1.60;;
55292;SDS011;41157;53.560;10.098;2022-12-29T12:16:33;7.60;;;2.30;;
55292;SDS011;41157;53.560;10.098;2022-12-29T12:19:02;4.67;;;1.30;;
55292;SDS011;41157;53.560;10.098;2022-12-29T12:21:33;3.87;;;1.87;;
55292;SDS011;41157;53.560;10.098;2022-12-29T12:27:00;6.57;;;1.93;;
55292;SDS011;41157;53.560;10.098;2022-12-29T12:29:36;5.13;;;1.70;;
55292;SDS011;41157;53.560;10.098;2022-12-29T12:32:08;5.43;;;1.90;;
55292;SDS011;41157;53.560;10.098;2022-12-29T12:34:37;7.73;;;1.67;;
55292;SDS011;41157;53.560;10.098;2022-12-29T12:45:16;7.47;;;2.30;;
55292;SDS011;41157;53.560;10.098;2022-12-29T12:53:12;7.13;;;2.10;;
55292;SDS011;41157;53.560;10.098;2022-12-29T12:58:40;5.27;;;2.03;;
55292;SDS011;41157;53.560;10.098;2022-12-29T13:01:20;6.83;;;1.80;;
55292;SDS011;41157;53.560;10.098;2022-12-29T13:06:23;5.17;;;1.70;;
55292;SDS011;41157;53.560;10.098;2022-12-29T13:08:56;10.87;;;1.93;;
55292;SDS011;41157;53.560;10.098;2022-12-29T13:18:55;6.57;;;1.77;;
55292;SDS011;41157;53.560;10.098;2022-12-29T13:24:07;7.70;;;1.73;;
55292;SDS011;41157;53.560;10.098;2022-12-29T13:26:39;7.30;;;1.70;;
55292;SDS011;41157;53.560;10.098;2022-12-29T13:29:13;5.57;;;1.93;;
55292;SDS011;41157;53.560;10.098;2022-12-29T13:32:05;4.50;;;1.57;;
55292;SDS011;41157;53.560;10.098;2022-12-29T13:34:43;7.03;;;1.90;;
55292;SDS011;41157;53.560;10.098;2022-12-29T13:37:12;6.00;;;1.70;;
55292;SDS011;41157;53.560;10.098;2022-12-29T13:39:41;4.07;;;1.80;;
55292;SDS011;41157;53.560;10.098;2022-12-29T13:42:08;4.53;;;1.40;;
55292;SDS011;41157;53.560;10.098;2022-12-29T13:49:51;6.83;;;1.70;;
55292;SDS011;41157;53.560;10.098;2022-12-29T13:52:21;3.00;;;1.40;;
55292;SDS011;41157;53.560;10.098;2022-12-29T13:57:38;4.30;;;1.77;;
55292;SDS011;41157;53.560;10.098;2022-12-29T14:00:15;4.87;;;1.43;;
55292;SDS011;41157;53.560;10.098;2022-12-29T14:05:26;6.20;;;1.77;;
55292;SDS011;41157;53.560;10.098;2022-12-29T14:08:00;5.30;;;1.67;;
55292;SDS011;41157;53.560;10.098;2022-12-29T14:10:36;4.73;;;1.87;;
55292;SDS011;41157;53.560;10.098;2022-12-29T14:13:06;5.33;;;1.90;;
55292;SDS011;41157;53.560;10.098;2022-12-29T14:15:39;8.57;;;1.60;;
55292;SDS011;41157;53.560;10.098;2022-12-29T14:18:16;5.97;;;1.50;;
55292;SDS011;41157;53.560;10.098;2022-12-29T14:20:48;4.30;;;1.43;;
55292;SDS011;41157;53.560;10.098;2022-12-29T14:23:17;5.90;;;1.57;;
55292;SDS011;41157;53.560;10.098;2022-12-29T14:25:56;6.17;;;1.80;;
55292;SDS011;41157;53.560;10.098;2022-12-29T14:28:26;4.67;;;1.50;;
55292;SDS011;41157;53.560;10.098;2022-12-29T14:30:54;6.03;;;1.63;;
55292;SDS011;41157;53.560;10.098;2022-12-29T14:33:20;5.77;;;1.40;;
55292;SDS011;41157;53.560;10.098;2022-12-29T14:35:47;5.50;;;1.60;;
55292;SDS011;41157;53.560;10.098;2022-12-29T14:38:18;4.47;;;1.40;;
55292;SDS011;41157;53.560;10.098;2022-12-29T14:40:45;4.10;;;1.30;;
55292;SDS011;41157;53.560;10.098;2022-12-29T14:43:11;4.43;;;1.30;;
55292;SDS011;41157;53.560;10.098;2022-12-29T14:45:38;5.13;;;1.87;;
55292;SDS011;41157;53.560;10.098;2022-12-29T14:51:17;4.67;;;1.40;;
55292;SDS011;41157;53.560;10.098;2022-12-29T14:53:48;5.43;;;1.63;;
55292;SDS011;41157;53.560;10.098;2022-12-29T14:56:19;5.10;;;1.43;;
55292;SDS011;41157;53.560;10.098;2022-12-29T14:59:01;4.43;;;1.70;;
55292;SDS011;41157;53.560;10.098;2022-12-29T15:01:34;4.43;;;1.47;;
55292;SDS011;41157;53.560;10.098;2022-12-29T15:04:26;3.70;;;1.33;;
55292;SDS011;41157;53.560;10.098;2022-12-29T15:06:49;2.40;;;1.23;;
55292;SDS011;41157;53.560;10.098;2022-12-29T15:09:28;5.33;;;1.50;;
55292;SDS011;41157;53.560;10.098;2022-12-29T15:12:00;6.20;;;1.60;;
55292;SDS011;41157;53.560;10.098;2022-12-29T15:16:56;7.80;;;1.80;;
55292;SDS011;41157;53.560;10.098;2022-12-29T15:19:25;7.90;;;1.50;;
55292;SDS011;41157;53.560;10.098;2022-12-29T15:21:54;7.93;;;1.70;;
55292;SDS011;41157;53.560;10.098;2022-12-29T15:24:21;6.60;;;2.00;;
55292;SDS011;41157;53.560;10.098;2022-12-29T15:26:51;7.73;;;1.57;;
55292;SDS011;41157;53.560;10.098;2022-12-29T15:29:36;4.30;;;1.43;;
55292;SDS011;41157;53.560;10.098;2022-12-29T15:34:45;6.17;;;1.60;;
55292;SDS011;41157;53.560;10.098;2022-12-29T15:37:44;3.93;;;1.60;;
55292;SDS011;41157;53.560;10.098;2022-12-29T15:40:04;3.73;;;1.63;;
55292;SDS011;41157;53.560;10.098;2022-12-29T15:45:05;7.87;;;1.93;;
55292;SDS011;41157;53.560;10.098;2022-12-29T15:47:32;6.77;;;2.00;;
55292;SDS011;41157;53.560;10.098;2022-12-29T15:50:01;5.20;;;1.67;;
55292;SDS011;41157;53.560;10.098;2022-12-29T15:52:29;5.43;;;1.97;;
55292;SDS011;41157;53.560;10.098;2022-12-29T15:54:56;7.63;;;2.27;;
55292;SDS011;41157;53.560;10.098;2022-12-29T15:57:28;6.50;;;2.50;;
55292;SDS011;41157;53.560;10.098;2022-12-29T15:59:55;7.53;;;2.27;;
55292;SDS011;41157;53.560;10.098;2022-12-29T16:02:24;6.87;;;2.53;;
55292;SDS011;41157;53.560;10.098;2022-12-29T16:04:50;7.40;;;2.10;;
55292;SDS011;41157;53.560;10.098;2022-12-29T16:07:24;6.37;;;1.73;;
55292;SDS011;41157;53.560;10.098;2022-12-29T16:09:56;5.83;;;2.07;;
55292;SDS011;41157;53.560;10.098;2022-12-29T16:12:23;7.27;;;2.33;;
55292;SDS011;41157;53.560;10.098;2022-12-29T16:14:59;7.93;;;2.20;;
55292;SDS011;41157;53.560;10.098;2022-12-29T16:17:26;8.17;;;2.90;;
55292;SDS011;41157;53.560;10.098;2022-12-29T16:19:54;10.17;;;4.73;;
55292;SDS011;41157;53.560;10.098;2022-12-29T16:22:28;12.53;;;5.40;;
55292;SDS011;41157;53.560;10.098;2022-12-29T16:24:58;11.67;;;2.50;;
55292;SDS011;41157;53.560;10.098;2022-12-29T16:27:40;6.90;;;2.40;;
55292;SDS011;41157;53.560;10.098;2022-12-29T16:30:12;6.27;;;2.00;;
55292;SDS011;41157;53.560;10.098;2022-12-29T16:32:46;6.50;;;2.07;;
55292;SDS011;41157;53.560;10.098;2022-12-29T16:35:16;11.20;;;2.10;;